createdAt,value
2023-02-19T00:01:36.797Z,5.20
2023-02-19T00:04:10.188Z,5.28
2023-02-19T00:06:37.531Z,5.22
2023-02-19T00:09:04.862Z,4.80
2023-02-19T00:11:34.663Z,4.50
2023-02-19T00:14:03.630Z,6.47
2023-02-19T00:16:39.164Z,5.68
2023-02-19T00:19:09.092Z,6.38
2023-02-19T00:21:36.248Z,7.82
2023-02-19T00:24:05.614Z,5.78
2023-02-19T00:26:33.184Z,4.45
2023-02-19T00:29:01.833Z,5.63
2023-02-19T00:31:34.730Z,5.32
2023-02-19T00:34:05.188Z,5.80
2023-02-19T00:36:36.101Z,7.05
2023-02-19T00:39:04.876Z,5.93
2023-02-19T00:41:32.929Z,5.80
2023-02-19T00:44:04.170Z,5.28
2023-02-19T00:46:34.273Z,6.25
2023-02-19T00:49:03.467Z,7.85
2023-02-19T00:51:33.274Z,6.13
2023-02-19T00:54:01.033Z,6.60
2023-02-19T00:56:28.314Z,5.03
2023-02-19T00:58:56.004Z,7.15
2023-02-19T01:01:23.171Z,7.65
2023-02-19T01:03:51.652Z,9.10
2023-02-19T01:06:20.817Z,8.32
2023-02-19T01:08:47.931Z,8.15
2023-02-19T01:11:16.111Z,7.72
2023-02-19T01:13:43.749Z,7.80
2023-02-19T01:16:19.867Z,9.57
2023-02-19T01:18:48.016Z,9.45
2023-02-19T01:21:18.355Z,8.77
2023-02-19T01:23:47.397Z,9.52
2023-02-19T01:26:17.652Z,6.65
2023-02-19T01:28:45.694Z,6.70
2023-02-19T01:31:17.398Z,7.20
2023-02-19T01:33:49.067Z,8.50
2023-02-19T01:36:16.736Z,8.48
2023-02-19T01:38:44.384Z,8.43
2023-02-19T01:41:15.826Z,9.82
2023-02-19T01:44:04.066Z,10.95
2023-02-19T01:46:33.614Z,11.27
2023-02-19T01:49:08.690Z,13.02
2023-02-19T01:51:41.276Z,12.80
2023-02-19T01:54:11.513Z,11.52
2023-02-19T01:56:41.638Z,12.43
2023-02-19T01:59:08.886Z,11.23
2023-02-19T02:01:38.809Z,10.77
2023-02-19T02:04:08.023Z,10.50
2023-02-19T02:06:42.113Z,7.90
2023-02-19T02:09:28.804Z,8.98
2023-02-19T02:11:56.122Z,8.18
2023-02-19T02:14:27.371Z,6.15
2023-02-19T02:17:30.333Z,6.85
2023-02-19T02:20:34.766Z,8.40
2023-02-19T02:23:29.559Z,8.38
2023-02-19T02:26:13.248Z,11.20
2023-02-19T02:28:52.758Z,8.93
2023-02-19T02:31:35.665Z,9.20
2023-02-19T02:34:14.706Z,9.57
2023-02-19T02:36:45.613Z,9.23
2023-02-19T02:39:19.788Z,7.43
2023-02-19T02:42:14.863Z,8.45
2023-02-19T02:45:04.581Z,9.93
2023-02-19T02:47:44.896Z,10.38
2023-02-19T02:50:21.742Z,8.98
2023-02-19T02:53:11.290Z,9.23
2023-02-19T02:55:43.085Z,11.20
2023-02-19T02:58:12.682Z,13.10
2023-02-19T03:01:02.732Z,14.50
2023-02-19T03:03:32.480Z,15.13
2023-02-19T03:06:04.751Z,14.80
2023-02-19T03:08:34.255Z,17.38
2023-02-19T03:11:26.313Z,19.37
2023-02-19T03:14:24.727Z,19.67
2023-02-19T03:17:17.442Z,19.40
2023-02-19T03:19:50.512Z,17.25
2023-02-19T03:22:31.070Z,19.50
2023-02-19T03:25:42.369Z,20.45
2023-02-19T03:28:16.188Z,20.55
2023-02-19T03:30:50.888Z,19.03
2023-02-19T03:33:23.208Z,21.08
2023-02-19T03:35:55.836Z,18.83
2023-02-19T03:38:32.015Z,17.80
2023-02-19T03:41:40.640Z,19.08
2023-02-19T03:44:19.169Z,20.25
2023-02-19T03:47:08.389Z,15.45
2023-02-19T03:49:52.158Z,15.43
2023-02-19T03:52:35.558Z,16.73
2023-02-19T03:55:18.158Z,17.63
2023-02-19T03:57:48.971Z,16.50
2023-02-19T04:00:16.294Z,16.15
2023-02-19T04:02:58.610Z,15.57
2023-02-19T04:05:29.368Z,18.25
2023-02-19T04:08:11.341Z,18.60
2023-02-19T04:10:45.874Z,15.52
2023-02-19T04:13:30.648Z,16.50
2023-02-19T04:16:03.786Z,18.95
2023-02-19T04:18:38.100Z,16.75
2023-02-19T04:21:07.234Z,17.35
2023-02-19T04:23:41.547Z,18.50
2023-02-19T04:26:09.391Z,20.30
2023-02-19T04:28:37.644Z,17.30
2023-02-19T04:31:04.833Z,16.77
2023-02-19T04:33:31.789Z,18.45
2023-02-19T04:35:58.723Z,17.85
2023-02-19T04:38:25.940Z,16.00
2023-02-19T04:40:52.912Z,18.08
2023-02-19T04:43:20.290Z,18.73
2023-02-19T04:45:47.280Z,18.80
2023-02-19T04:48:14.977Z,15.73
2023-02-19T04:50:41.992Z,15.77
2023-02-19T04:53:09.095Z,16.40
2023-02-19T04:55:39.711Z,12.45
2023-02-19T04:58:06.899Z,13.82
2023-02-19T05:00:34.203Z,14.90
2023-02-19T05:03:01.819Z,13.15
2023-02-19T05:05:29.104Z,15.02
2023-02-19T05:07:56.084Z,14.80
2023-02-19T05:10:23.025Z,13.85
2023-02-19T05:12:50.070Z,14.45
2023-02-19T05:15:17.014Z,12.50
2023-02-19T05:17:43.938Z,13.95
2023-02-19T05:20:11.372Z,12.87
2023-02-19T05:22:38.324Z,13.05
2023-02-19T05:25:05.870Z,13.17
2023-02-19T05:27:32.860Z,12.05
2023-02-19T05:30:00.040Z,11.27
2023-02-19T05:32:27.132Z,10.70
2023-02-19T05:34:54.136Z,10.52
2023-02-19T05:37:21.166Z,9.77
2023-02-19T05:39:49.668Z,11.02
2023-02-19T05:42:16.733Z,11.70
2023-02-19T05:44:43.806Z,12.93
2023-02-19T05:47:11.163Z,12.68
2023-02-19T05:49:38.255Z,13.02
2023-02-19T05:52:05.424Z,13.00
2023-02-19T05:54:32.714Z,10.65
2023-02-19T05:56:59.763Z,12.90
2023-02-19T05:59:27.166Z,10.77
2023-02-19T06:01:55.138Z,11.45
2023-02-19T06:04:22.355Z,11.88
2023-02-19T06:06:49.525Z,10.40
2023-02-19T06:09:17.061Z,12.23
2023-02-19T06:11:44.175Z,10.52
2023-02-19T06:14:13.584Z,12.63
2023-02-19T06:16:41.155Z,13.20
2023-02-19T06:19:08.239Z,12.23
2023-02-19T06:21:35.827Z,12.45
2023-02-19T06:24:07.984Z,13.85
2023-02-19T06:26:35.307Z,15.18
2023-02-19T06:29:02.294Z,20.23
2023-02-19T06:31:29.546Z,18.08
2023-02-19T06:33:56.673Z,18.80
2023-02-19T06:36:24.418Z,25.35
2023-02-19T06:38:52.079Z,23.67
2023-02-19T06:41:19.427Z,27.15
2023-02-19T06:43:46.883Z,27.60
2023-02-19T06:46:14.609Z,31.25
2023-02-19T06:48:43.548Z,32.15
2023-02-19T06:51:16.363Z,35.28
2023-02-19T06:53:43.445Z,34.70
2023-02-19T06:56:43.952Z,38.85
2023-02-19T06:59:16.904Z,39.10
2023-02-19T07:01:45.015Z,38.65
2023-02-19T07:04:12.634Z,44.92
2023-02-19T07:06:39.694Z,44.15
2023-02-19T07:09:08.180Z,46.13
2023-02-19T07:11:38.174Z,42.67
2023-02-19T07:14:08.856Z,49.80
2023-02-19T07:16:36.877Z,49.22
2023-02-19T07:19:04.163Z,45.60
2023-02-19T07:21:31.341Z,47.88
2023-02-19T07:23:58.640Z,46.25
2023-02-19T07:26:26.086Z,44.60
2023-02-19T07:28:53.559Z,44.60
2023-02-19T07:31:22.640Z,44.17
2023-02-19T07:33:50.766Z,43.47
2023-02-19T07:36:18.941Z,43.67
2023-02-19T07:38:46.331Z,42.03
2023-02-19T07:41:14.106Z,39.28
2023-02-19T07:43:42.000Z,37.53
2023-02-19T07:46:11.421Z,36.20
2023-02-19T07:48:39.736Z,36.72
2023-02-19T07:51:10.672Z,31.80
2023-02-19T07:53:38.125Z,33.22
2023-02-19T07:56:07.578Z,36.70
2023-02-19T07:58:34.797Z,31.27
2023-02-19T08:01:12.139Z,33.60
2023-02-19T08:03:39.489Z,30.80
2023-02-19T08:06:07.519Z,32.20
2023-02-19T08:08:34.691Z,34.97
2023-02-19T08:11:21.210Z,32.85
2023-02-19T08:13:50.318Z,31.88
2023-02-19T08:16:29.790Z,35.88
2023-02-19T08:19:04.493Z,31.13
2023-02-19T08:21:33.504Z,33.17
2023-02-19T08:24:01.377Z,32.90
2023-02-19T08:26:28.468Z,29.45
2023-02-19T08:28:55.438Z,28.73
2023-02-19T08:31:22.500Z,27.95
2023-02-19T08:33:49.680Z,27.77
2023-02-19T08:36:16.717Z,32.53
2023-02-19T08:38:43.717Z,29.85
2023-02-19T08:41:13.262Z,29.42
2023-02-19T08:43:41.624Z,28.33
2023-02-19T08:46:10.332Z,26.77
2023-02-19T08:48:38.632Z,27.42
2023-02-19T08:51:08.609Z,25.27
2023-02-19T08:53:37.398Z,26.45
2023-02-19T08:56:12.318Z,27.38
2023-02-19T08:58:40.389Z,27.38
2023-02-19T09:01:13.229Z,24.45
2023-02-19T09:03:40.966Z,24.08
2023-02-19T09:06:11.230Z,26.30
2023-02-19T09:08:38.472Z,26.98
2023-02-19T09:11:07.176Z,25.05
2023-02-19T09:13:34.401Z,27.50
2023-02-19T09:16:04.450Z,25.98
2023-02-19T09:18:31.939Z,20.92
2023-02-19T09:21:06.066Z,21.02
2023-02-19T09:23:34.634Z,20.10
2023-02-19T09:26:03.276Z,23.65
2023-02-19T09:28:30.412Z,19.20
2023-02-19T09:30:57.455Z,17.10
2023-02-19T09:33:24.417Z,12.48
2023-02-19T09:35:51.723Z,13.35
2023-02-19T09:38:18.885Z,15.65
2023-02-19T09:40:45.957Z,13.20
2023-02-19T09:43:19.956Z,11.30
2023-02-19T09:45:47.952Z,17.02
2023-02-19T09:48:14.936Z,11.50
2023-02-19T09:50:47.400Z,12.00
2023-02-19T09:53:41.210Z,11.30
2023-02-19T09:56:08.652Z,12.25
2023-02-19T09:58:44.341Z,12.20
2023-02-19T10:01:12.341Z,12.25
2023-02-19T10:03:43.629Z,12.48
2023-02-19T10:06:24.106Z,8.27
2023-02-19T10:08:56.186Z,6.25
2023-02-19T10:11:25.829Z,3.92
2023-02-19T10:14:09.441Z,3.25
2023-02-19T10:16:41.849Z,3.70
2023-02-19T10:19:13.561Z,4.38
2023-02-19T10:21:41.462Z,3.63
2023-02-19T10:24:14.913Z,3.90
2023-02-19T10:26:43.089Z,5.70
2023-02-19T10:29:10.765Z,4.53
2023-02-19T10:31:38.004Z,5.13
2023-02-19T10:34:06.635Z,6.07
2023-02-19T10:36:40.461Z,4.47
2023-02-19T10:39:22.660Z,6.50
2023-02-19T10:41:51.050Z,5.07
2023-02-19T10:44:20.903Z,6.35
2023-02-19T10:46:51.128Z,5.50
2023-02-19T10:49:35.884Z,6.47
2023-02-19T10:52:28.320Z,5.05
2023-02-19T10:55:24.595Z,5.82
2023-02-19T10:57:51.815Z,11.45
2023-02-19T11:00:26.935Z,7.82
2023-02-19T11:03:20.365Z,8.15
2023-02-19T11:06:04.075Z,7.38
2023-02-19T11:08:45.219Z,9.50
2023-02-19T11:11:33.939Z,7.70
2023-02-19T11:14:12.554Z,7.82
2023-02-19T11:16:49.307Z,6.95
2023-02-19T11:19:38.062Z,5.68
2023-02-19T11:22:37.534Z,6.10
2023-02-19T11:25:10.491Z,5.10
2023-02-19T11:27:55.180Z,5.77
2023-02-19T11:30:35.228Z,4.60
2023-02-19T11:33:19.924Z,3.87
2023-02-19T11:35:48.572Z,4.23
2023-02-19T11:38:17.992Z,5.07
2023-02-19T11:40:58.168Z,4.57
2023-02-19T11:43:31.339Z,3.40
2023-02-19T11:46:22.941Z,4.63
2023-02-19T11:49:05.047Z,4.60
2023-02-19T11:51:52.200Z,4.77
2023-02-19T11:54:30.742Z,4.22
2023-02-19T11:57:30.009Z,4.33
2023-02-19T12:00:05.532Z,4.40
2023-02-19T12:02:44.239Z,3.80
2023-02-19T12:05:17.194Z,3.80
2023-02-19T12:08:21.182Z,3.40
2023-02-19T12:11:11.344Z,5.55
2023-02-19T12:14:02.221Z,4.13
2023-02-19T12:16:32.057Z,4.82
2023-02-19T12:19:09.269Z,4.07
2023-02-19T12:22:08.392Z,5.78
2023-02-19T12:24:41.492Z,4.60
2023-02-19T12:27:24.241Z,5.63
2023-02-19T12:30:00.105Z,5.47
2023-02-19T12:32:42.564Z,6.80
2023-02-19T12:35:18.060Z,5.63
2023-02-19T12:38:10.567Z,5.15
2023-02-19T12:41:10.556Z,5.57
2023-02-19T12:43:44.529Z,5.20
2023-02-19T12:46:21.597Z,6.27
2023-02-19T12:49:00.474Z,6.47
2023-02-19T12:51:49.137Z,6.40
2023-02-19T12:54:42.328Z,7.53
2023-02-19T12:57:23.484Z,7.80
2023-02-19T13:00:20.186Z,8.63
2023-02-19T13:02:55.214Z,10.13
2023-02-19T13:05:55.879Z,12.32
2023-02-19T13:08:35.599Z,12.03
2023-02-19T13:11:17.933Z,13.10
2023-02-19T13:13:52.660Z,17.90
2023-02-19T13:16:22.075Z,13.57
2023-02-19T13:18:51.152Z,16.20
2023-02-19T13:21:39.978Z,13.83
2023-02-19T13:24:16.328Z,14.50
2023-02-19T13:26:56.072Z,17.97
2023-02-19T13:29:23.037Z,17.57
2023-02-19T13:32:27.179Z,18.93
2023-02-19T13:35:24.371Z,16.60
2023-02-19T13:37:53.388Z,16.83
2023-02-19T13:40:29.216Z,15.43
2023-02-19T13:43:00.108Z,14.27
2023-02-19T13:45:43.687Z,16.07
2023-02-19T13:51:26.264Z,16.10
2023-02-19T13:53:56.163Z,15.50
2023-02-19T13:56:35.088Z,15.90
2023-02-19T13:59:11.188Z,10.80
2023-02-19T14:01:53.336Z,10.00
2023-02-19T14:04:32.359Z,5.30
2023-02-19T14:07:05.430Z,6.80
2023-02-19T14:09:41.144Z,6.13
2023-02-19T14:12:09.609Z,5.30
2023-02-19T14:14:40.664Z,4.83
2023-02-19T14:17:12.405Z,6.70
2023-02-19T14:19:42.229Z,7.10
2023-02-19T14:22:46.409Z,7.73
2023-02-19T14:25:28.450Z,7.83
2023-02-19T14:28:09.854Z,7.93
2023-02-19T14:30:51.424Z,8.27
2023-02-19T14:37:35.679Z,9.90
2023-02-19T14:40:03.862Z,15.03
2023-02-19T14:42:34.119Z,13.27
2023-02-19T14:45:05.514Z,10.23
2023-02-19T14:47:35.133Z,10.37
2023-02-19T14:50:08.947Z,9.93
2023-02-19T14:52:44.530Z,13.00
2023-02-19T14:55:35.208Z,8.67
2023-02-19T14:58:10.817Z,11.43
2023-02-19T15:00:40.482Z,9.57
2023-02-19T15:07:33.515Z,11.83
2023-02-19T15:10:05.007Z,10.40
2023-02-19T15:12:41.908Z,10.77
2023-02-19T15:15:16.299Z,10.50
2023-02-19T15:17:43.559Z,10.07
2023-02-19T15:25:06.362Z,10.93
2023-02-19T15:27:34.392Z,8.97
2023-02-19T15:30:01.505Z,11.83
2023-02-19T15:32:28.699Z,11.73
2023-02-19T15:39:27.979Z,11.10
2023-02-19T15:42:00.797Z,11.97
2023-02-19T15:44:53.487Z,10.03
2023-02-19T15:47:50.749Z,11.27
2023-02-19T15:51:53.201Z,9.70
2023-02-19T15:54:31.930Z,10.17
2023-02-19T15:57:04.983Z,9.27
2023-02-19T15:59:41.371Z,13.57
2023-02-19T16:02:13.505Z,11.63
2023-02-19T16:09:06.852Z,12.03
2023-02-19T16:12:01.378Z,9.80
2023-02-19T16:14:35.584Z,13.20
2023-02-19T16:17:11.476Z,13.67
2023-02-19T16:21:32.838Z,12.17
2023-02-19T16:24:22.670Z,11.20
2023-02-19T16:26:49.676Z,13.63
2023-02-19T16:29:50.261Z,13.00
2023-02-19T16:32:17.896Z,13.93
2023-02-19T16:39:16.465Z,14.10
2023-02-19T16:41:47.080Z,14.53
2023-02-19T16:44:30.997Z,16.03
2023-02-19T16:47:03.878Z,14.73
2023-02-19T16:49:31.638Z,15.80
2023-02-19T16:52:02.685Z,15.27
2023-02-19T16:54:31.367Z,15.27
2023-02-19T16:56:58.413Z,17.00
2023-02-19T16:59:25.607Z,14.67
2023-02-19T17:01:52.673Z,14.97
2023-02-19T17:04:19.778Z,16.87
2023-02-19T17:11:17.471Z,20.60
2023-02-19T17:13:46.449Z,17.80
2023-02-19T17:16:21.635Z,17.27
2023-02-19T17:18:49.426Z,17.87
2023-02-19T17:21:25.646Z,15.23
2023-02-19T17:23:54.251Z,17.67
2023-02-19T17:26:29.320Z,16.90
2023-02-19T17:28:57.610Z,13.97
2023-02-19T17:31:24.932Z,15.33
2023-02-19T17:33:52.161Z,17.63
2023-02-19T17:36:26.725Z,12.63
2023-02-19T17:38:54.316Z,17.17
2023-02-19T17:41:21.484Z,13.97
2023-02-19T17:43:50.492Z,17.00
2023-02-19T17:46:23.553Z,15.73
2023-02-19T17:48:51.380Z,17.53
2023-02-19T17:51:18.575Z,15.80
2023-02-19T17:53:46.695Z,15.20
2023-02-19T17:56:22.647Z,15.20
2023-02-19T17:58:49.870Z,14.17
2023-02-19T18:01:17.230Z,21.07
2023-02-19T18:03:44.597Z,15.77
2023-02-19T18:06:11.979Z,13.23
2023-02-19T18:08:39.446Z,14.50
2023-02-19T18:11:07.780Z,17.57
2023-02-19T18:13:34.850Z,12.90
2023-02-19T18:16:01.971Z,14.10
2023-02-19T18:18:30.303Z,16.07
2023-02-19T18:21:00.680Z,18.87
2023-02-19T18:23:27.951Z,15.93
2023-02-19T18:25:54.976Z,21.47
2023-02-19T18:28:21.912Z,16.53
2023-02-19T18:30:49.287Z,22.23
2023-02-19T18:33:16.412Z,16.80
2023-02-19T18:35:43.479Z,21.33
2023-02-19T18:38:10.489Z,16.57
2023-02-19T18:40:37.523Z,20.00
2023-02-19T18:43:05.444Z,15.93
2023-02-19T18:45:35.416Z,14.63
2023-02-19T18:48:02.892Z,18.90
2023-02-19T18:50:29.922Z,16.83
2023-02-19T18:52:57.024Z,19.83
2023-02-19T18:55:24.106Z,19.07
2023-02-19T18:57:51.172Z,21.53
2023-02-19T19:00:21.169Z,19.57
2023-02-19T19:02:50.668Z,21.57
2023-02-19T19:05:22.821Z,24.63
2023-02-19T19:12:13.862Z,20.37
2023-02-19T19:14:41.517Z,21.77
2023-02-19T19:17:08.580Z,20.93
2023-02-19T19:19:35.928Z,22.20
2023-02-19T19:26:45.341Z,14.77
2023-02-19T19:29:16.037Z,18.77
2023-02-19T19:31:43.629Z,15.90
2023-02-19T19:34:12.189Z,19.27
2023-02-19T19:36:39.499Z,17.57
2023-02-19T19:39:06.849Z,21.83
2023-02-19T19:41:33.896Z,20.43
2023-02-19T19:44:08.598Z,20.57
2023-02-19T19:46:36.240Z,23.37
2023-02-19T19:49:03.310Z,23.37
2023-02-19T19:51:34.587Z,20.07
2023-02-19T19:54:04.121Z,22.97
2023-02-19T19:56:31.806Z,22.27
2023-02-19T19:58:58.871Z,20.23
2023-02-19T20:01:25.937Z,23.00
2023-02-19T20:03:52.922Z,21.93
2023-02-19T20:06:29.349Z,22.23
2023-02-19T20:08:56.558Z,24.73
2023-02-19T20:11:24.055Z,22.43
2023-02-19T20:13:51.097Z,24.67
2023-02-19T20:16:25.045Z,23.30
2023-02-19T20:18:52.084Z,18.80
2023-02-19T20:21:19.228Z,19.10
2023-02-19T20:23:46.474Z,19.63
2023-02-19T20:26:13.461Z,21.10
2023-02-19T20:28:45.179Z,22.47
2023-02-19T20:31:12.673Z,18.93
2023-02-19T20:33:39.966Z,20.80
2023-02-19T20:36:07.638Z,24.10
2023-02-19T20:43:10.586Z,27.67
2023-02-19T20:45:37.641Z,29.23
2023-02-19T20:48:04.636Z,21.07
2023-02-19T20:50:32.014Z,19.43
2023-02-19T20:57:28.968Z,22.57
2023-02-19T20:59:56.142Z,22.70
2023-02-19T21:02:29.105Z,22.30
2023-02-19T21:04:57.160Z,25.27
2023-02-19T21:11:51.519Z,21.13
2023-02-19T21:14:19.002Z,20.17
2023-02-19T21:16:46.104Z,20.67
2023-02-19T21:19:13.112Z,24.40
2023-02-19T21:26:07.794Z,19.83
2023-02-19T21:28:34.925Z,20.63
2023-02-19T21:31:01.979Z,22.00
2023-02-19T21:33:29.076Z,20.40
2023-02-19T21:35:57.743Z,22.33
2023-02-19T21:38:24.789Z,23.40
2023-02-19T21:40:52.024Z,23.90
2023-02-19T21:43:19.162Z,24.33
2023-02-19T21:45:46.169Z,25.23
2023-02-19T21:48:13.235Z,24.57
2023-02-19T21:50:40.522Z,25.33
2023-02-19T21:53:07.784Z,23.30
2023-02-19T21:55:34.814Z,27.77
2023-02-19T21:58:01.913Z,25.30
2023-02-19T22:00:29.246Z,25.70
2023-02-19T22:02:56.977Z,25.07
2023-02-19T22:05:26.819Z,25.17
2023-02-19T22:07:54.084Z,26.13
2023-02-19T22:10:21.855Z,26.97
2023-02-19T22:12:48.939Z,23.93
2023-02-19T22:15:16.246Z,29.33
2023-02-19T22:17:43.347Z,28.80
2023-02-19T22:20:10.561Z,25.63
2023-02-19T22:22:37.504Z,29.70
2023-02-19T22:25:04.685Z,29.07
2023-02-19T22:27:31.752Z,29.83
2023-02-19T22:29:58.711Z,30.23
2023-02-19T22:32:25.935Z,31.63
2023-02-19T22:34:53.042Z,26.40
2023-02-19T22:37:20.002Z,31.73
2023-02-19T22:39:47.114Z,26.57
2023-02-19T22:42:14.146Z,23.90
2023-02-19T22:44:43.624Z,26.13
2023-02-19T22:47:10.981Z,25.33
2023-02-19T22:49:39.454Z,27.57
2023-02-19T22:52:09.843Z,27.13
2023-02-19T22:59:07.517Z,23.83
2023-02-19T23:01:34.449Z,25.80
2023-02-19T23:04:01.657Z,20.00
2023-02-19T23:06:32.192Z,24.10
2023-02-19T23:13:35.470Z,27.03
2023-02-19T23:16:04.719Z,26.30
2023-02-19T23:18:31.956Z,24.47
2023-02-19T23:20:59.332Z,25.83
2023-02-19T23:23:26.306Z,22.67
2023-02-19T23:25:53.453Z,23.23
2023-02-19T23:28:20.528Z,23.53
2023-02-19T23:30:47.672Z,23.43
2023-02-19T23:33:15.082Z,21.73
2023-02-19T23:35:42.087Z,25.37
2023-02-19T23:38:09.059Z,23.73
2023-02-19T23:40:36.146Z,21.73
2023-02-19T23:43:03.340Z,27.53
2023-02-19T23:45:30.520Z,23.83
2023-02-19T23:47:57.514Z,24.77
2023-02-19T23:50:24.578Z,18.70
2023-02-19T23:52:51.915Z,22.83
2023-02-19T23:55:18.968Z,20.80
2023-02-19T23:57:46.042Z,23.30
